createdAt,value
2022-07-26T00:00:12.779Z,24.02
2022-07-26T00:02:40.753Z,23.99
2022-07-26T00:05:14.834Z,23.93
2022-07-26T00:07:41.828Z,23.88
2022-07-26T00:10:08.831Z,23.84
2022-07-26T00:12:35.815Z,23.85
2022-07-26T00:15:02.653Z,23.79
2022-07-26T00:17:29.391Z,23.76
2022-07-26T00:19:56.118Z,23.74
2022-07-26T00:22:34.811Z,23.76
2022-07-26T00:25:10.786Z,23.79
2022-07-26T00:27:37.753Z,23.83
2022-07-26T00:30:09.347Z,23.85
2022-07-26T00:32:36.566Z,23.84
2022-07-26T00:35:04.228Z,23.83
2022-07-26T00:37:31.400Z,23.85
2022-07-26T00:39:58.085Z,23.86
2022-07-26T00:42:24.754Z,23.86
2022-07-26T00:44:51.569Z,23.83
2022-07-26T00:47:18.567Z,23.80
2022-07-26T00:49:45.640Z,23.77
2022-07-26T00:52:12.907Z,23.73
2022-07-26T00:54:43.866Z,23.63
2022-07-26T00:57:10.625Z,23.55
2022-07-26T00:59:38.043Z,23.47
2022-07-26T01:02:06.791Z,23.45
2022-07-26T01:04:34.456Z,23.35
2022-07-26T01:07:01.833Z,23.11
2022-07-26T01:09:28.671Z,22.98
2022-07-26T01:11:55.413Z,22.93
2022-07-26T01:14:23.387Z,22.93
2022-07-26T01:16:51.056Z,22.94
2022-07-26T01:19:18.188Z,22.93
2022-07-26T01:21:45.905Z,22.93
2022-07-26T01:24:12.806Z,22.94
2022-07-26T01:26:39.422Z,22.95
2022-07-26T01:29:06.581Z,22.95
2022-07-26T01:31:33.250Z,22.96
2022-07-26T01:33:59.978Z,22.96
2022-07-26T01:36:26.722Z,22.93
2022-07-26T01:38:53.454Z,22.90
2022-07-26T01:41:21.390Z,22.91
2022-07-26T01:44:06.051Z,22.91
2022-07-26T01:46:33.884Z,22.91
2022-07-26T01:49:01.887Z,22.90
2022-07-26T01:51:29.178Z,22.90
2022-07-26T01:53:56.159Z,22.90
2022-07-26T01:56:22.927Z,22.93
2022-07-26T01:58:50.319Z,22.97
2022-07-26T02:01:17.238Z,22.93
2022-07-26T02:04:03.875Z,22.91
2022-07-26T02:06:30.669Z,22.91
2022-07-26T02:08:57.280Z,22.84
2022-07-26T02:11:24.424Z,22.68
2022-07-26T02:13:53.191Z,22.48
2022-07-26T02:16:20.209Z,22.38
2022-07-26T02:18:47.024Z,22.34
2022-07-26T02:21:13.636Z,22.27
2022-07-26T02:23:41.294Z,22.25
2022-07-26T02:26:08.759Z,22.24
2022-07-26T02:28:35.388Z,22.22
2022-07-26T02:31:02.285Z,22.17
2022-07-26T02:33:28.980Z,22.07
2022-07-26T02:35:55.667Z,22.06
2022-07-26T02:38:22.364Z,22.04
2022-07-26T02:40:52.613Z,21.99
2022-07-26T02:43:19.583Z,21.97
2022-07-26T02:46:01.676Z,21.99
2022-07-26T02:48:30.732Z,22.00
2022-07-26T02:50:57.600Z,22.02
2022-07-26T02:53:24.236Z,22.04
2022-07-26T02:55:50.823Z,22.06
2022-07-26T02:58:17.585Z,22.08
2022-07-26T03:00:44.349Z,22.13
2022-07-26T03:03:14.223Z,22.15
2022-07-26T03:05:41.255Z,22.13
2022-07-26T03:08:08.234Z,22.03
2022-07-26T03:10:35.125Z,21.86
2022-07-26T03:13:02.164Z,21.77
2022-07-26T03:15:28.964Z,21.64
2022-07-26T03:17:55.788Z,21.58
2022-07-26T03:20:22.822Z,21.54
2022-07-26T03:22:49.465Z,21.54
2022-07-26T03:25:16.139Z,21.57
2022-07-26T03:27:42.778Z,21.59
2022-07-26T03:30:10.465Z,21.62
2022-07-26T03:32:37.547Z,21.66
2022-07-26T03:35:05.206Z,21.70
2022-07-26T03:37:44.735Z,21.76
2022-07-26T03:40:16.801Z,21.81
2022-07-26T03:42:47.482Z,21.92
2022-07-26T03:45:15.537Z,22.00
2022-07-26T03:47:43.473Z,22.07
2022-07-26T03:50:11.302Z,22.16
2022-07-26T03:52:38.087Z,22.22
2022-07-26T03:55:25.175Z,22.31
2022-07-26T03:57:51.961Z,22.39
2022-07-26T04:00:18.759Z,22.49
2022-07-26T04:02:46.525Z,22.57
2022-07-26T04:05:13.249Z,22.70
2022-07-26T04:07:52.619Z,22.80
2022-07-26T04:10:21.474Z,22.93
2022-07-26T04:12:48.685Z,23.06
2022-07-26T04:15:17.185Z,23.18
2022-07-26T04:17:44.081Z,23.31
2022-07-26T04:20:12.711Z,23.40
2022-07-26T04:22:40.214Z,23.54
2022-07-26T04:25:08.616Z,23.65
2022-07-26T04:27:35.978Z,23.74
2022-07-26T04:30:03.045Z,23.86
2022-07-26T04:32:30.027Z,24.03
2022-07-26T04:34:56.661Z,24.14
2022-07-26T04:37:23.229Z,24.28
2022-07-26T04:39:54.740Z,24.38
2022-07-26T04:42:21.827Z,24.45
2022-07-26T04:44:48.470Z,24.54
2022-07-26T04:47:15.087Z,24.66
2022-07-26T04:49:41.782Z,24.84
2022-07-26T04:52:08.548Z,25.03
2022-07-26T04:54:35.196Z,25.24
2022-07-26T04:57:01.815Z,25.45
2022-07-26T04:59:32.717Z,25.61
2022-07-26T05:01:59.810Z,25.77
2022-07-26T05:04:26.648Z,25.95
2022-07-26T05:06:53.269Z,26.07
2022-07-26T05:09:20.092Z,26.22
2022-07-26T05:11:46.761Z,26.35
2022-07-26T05:14:13.348Z,26.48
2022-07-26T05:16:44.213Z,26.59
2022-07-26T05:19:11.354Z,26.73
2022-07-26T05:21:38.008Z,26.84
2022-07-26T05:24:07.553Z,26.96
2022-07-26T05:26:34.703Z,27.07
2022-07-26T05:29:01.403Z,27.17
2022-07-26T05:31:29.442Z,27.32
2022-07-26T05:33:56.188Z,27.43
2022-07-26T05:36:22.817Z,27.60
2022-07-26T05:38:49.435Z,27.83
2022-07-26T05:41:16.545Z,28.05
2022-07-26T05:43:43.346Z,28.20
2022-07-26T05:46:11.357Z,28.39
2022-07-26T05:48:39.448Z,28.58
2022-07-26T05:51:06.146Z,28.72
2022-07-26T05:53:32.762Z,28.82
2022-07-26T05:55:59.463Z,28.91
2022-07-26T05:58:26.167Z,29.04
2022-07-26T06:00:53.096Z,29.08
2022-07-26T06:03:22.508Z,29.25
2022-07-26T06:05:51.633Z,29.45
2022-07-26T06:08:19.113Z,29.57
2022-07-26T06:10:47.543Z,29.64
2022-07-26T06:13:14.796Z,29.51
2022-07-26T06:15:42.425Z,29.63
2022-07-26T06:18:09.578Z,29.88
2022-07-26T06:20:40.749Z,30.09
2022-07-26T06:23:07.702Z,30.30
2022-07-26T06:25:34.907Z,30.56
2022-07-26T06:28:06.128Z,30.73
2022-07-26T06:30:32.744Z,31.02
2022-07-26T06:32:59.401Z,31.44
2022-07-26T06:35:30.850Z,31.64
2022-07-26T06:37:59.324Z,31.60
2022-07-26T06:40:26.171Z,31.80
2022-07-26T06:42:54.633Z,32.12
2022-07-26T06:45:21.508Z,32.38
2022-07-26T06:47:48.192Z,32.63
2022-07-26T06:50:14.929Z,32.65
2022-07-26T06:52:43.575Z,32.63
2022-07-26T06:55:14.805Z,32.79
2022-07-26T06:57:45.016Z,32.95
2022-07-26T07:00:17.853Z,32.98
2022-07-26T07:02:44.501Z,32.98
2022-07-26T07:05:12.009Z,32.97
2022-07-26T07:07:39.086Z,32.98
2022-07-26T07:10:09.491Z,33.28
2022-07-26T07:12:36.334Z,33.42
2022-07-26T07:15:03.285Z,33.53
2022-07-26T07:17:29.974Z,33.76
2022-07-26T07:19:56.676Z,33.87
2022-07-26T07:22:23.380Z,33.79
2022-07-26T07:24:50.002Z,33.97
2022-07-26T07:27:16.930Z,34.11
2022-07-26T07:29:44.198Z,34.16
2022-07-26T07:32:15.726Z,34.27
2022-07-26T07:34:42.858Z,34.27
2022-07-26T07:37:10.597Z,34.16
2022-07-26T07:39:38.921Z,34.41
2022-07-26T07:42:05.607Z,34.47
2022-07-26T07:44:32.243Z,34.67
2022-07-26T07:46:58.902Z,35.07
2022-07-26T07:49:25.620Z,35.42
2022-07-26T07:51:52.377Z,35.55
2022-07-26T07:54:19.017Z,35.39
2022-07-26T07:56:48.982Z,35.43
2022-07-26T07:59:15.632Z,35.75
2022-07-26T08:01:42.477Z,35.88
2022-07-26T08:04:11.851Z,35.92
2022-07-26T08:06:40.911Z,35.69
2022-07-26T08:09:08.738Z,35.68
2022-07-26T08:11:36.267Z,35.74
2022-07-26T08:14:03.444Z,35.98
2022-07-26T08:16:31.027Z,36.26
2022-07-26T08:18:59.263Z,36.61
2022-07-26T08:21:28.260Z,36.56
2022-07-26T08:23:55.792Z,36.63
2022-07-26T08:26:22.461Z,36.74
2022-07-26T08:28:58.322Z,36.85
2022-07-26T08:31:35.954Z,36.60
2022-07-26T08:34:02.703Z,36.82
2022-07-26T08:36:32.555Z,36.98
2022-07-26T08:38:59.969Z,37.28
2022-07-26T08:41:26.584Z,37.44
2022-07-26T08:43:53.977Z,37.59
2022-07-26T08:46:27.859Z,37.49
2022-07-26T08:48:57.984Z,37.19
2022-07-26T08:51:26.102Z,36.92
2022-07-26T08:54:02.343Z,37.19
2022-07-26T08:56:32.166Z,36.87
2022-07-26T08:58:58.804Z,37.16
2022-07-26T09:01:25.617Z,37.02
2022-07-26T09:03:52.939Z,36.91
2022-07-26T09:06:28.143Z,36.73
2022-07-26T09:09:11.450Z,37.29
2022-07-26T09:11:38.304Z,37.61
2022-07-26T09:14:06.640Z,37.56
2022-07-26T09:16:38.821Z,37.24
2022-07-26T09:19:19.276Z,37.19
2022-07-26T09:21:46.745Z,37.37
2022-07-26T09:24:29.275Z,37.74
2022-07-26T09:27:02.078Z,38.05
2022-07-26T09:29:29.901Z,37.51
2022-07-26T09:32:11.393Z,37.53
2022-07-26T09:34:44.500Z,37.72
2022-07-26T09:37:19.492Z,38.42
2022-07-26T09:39:59.568Z,38.53
2022-07-26T09:42:29.557Z,38.78
2022-07-26T09:44:58.329Z,38.93
2022-07-26T09:47:40.396Z,39.01
2022-07-26T09:50:18.279Z,38.55
2022-07-26T09:53:17.476Z,38.55
2022-07-26T09:55:45.047Z,38.77
2022-07-26T09:58:14.267Z,39.00
2022-07-26T10:00:41.523Z,39.05
2022-07-26T10:03:08.235Z,38.80
2022-07-26T10:05:35.930Z,39.16
2022-07-26T10:08:03.731Z,39.38
2022-07-26T10:11:05.119Z,39.67
2022-07-26T10:13:32.410Z,39.34
2022-07-26T10:15:59.287Z,39.66
2022-07-26T10:18:38.986Z,39.32
2022-07-26T10:21:16.167Z,38.81
2022-07-26T10:23:56.796Z,39.35
2022-07-26T10:26:32.295Z,39.80
2022-07-26T10:29:16.814Z,39.75
2022-07-26T10:31:47.931Z,39.91
2022-07-26T10:34:29.557Z,40.06
2022-07-26T10:37:01.010Z,39.56
2022-07-26T10:39:29.143Z,39.82
2022-07-26T10:42:02.258Z,39.53
2022-07-26T10:44:31.557Z,39.78
2022-07-26T10:47:07.141Z,40.28
2022-07-26T10:49:40.998Z,40.47
2022-07-26T10:52:22.642Z,41.10
2022-07-26T10:55:04.192Z,41.58
2022-07-26T10:57:38.082Z,41.37
2022-07-26T11:00:12.953Z,40.96
2022-07-26T11:02:40.127Z,41.27
2022-07-26T11:05:16.405Z,40.87
2022-07-26T11:08:10.846Z,41.19
2022-07-26T11:10:44.126Z,41.04
2022-07-26T11:13:23.631Z,40.80
2022-07-26T11:15:58.670Z,40.49
2022-07-26T11:18:28.267Z,40.14
2022-07-26T11:20:57.067Z,40.61
2022-07-26T11:23:32.786Z,40.78
2022-07-26T11:26:02.273Z,41.23
2022-07-26T11:28:29.238Z,41.44
2022-07-26T11:30:57.980Z,41.52
2022-07-26T11:33:37.724Z,41.30
2022-07-26T11:36:05.590Z,41.46
2022-07-26T11:38:46.179Z,41.09
2022-07-26T11:41:16.131Z,40.04
2022-07-26T11:43:42.936Z,39.75
2022-07-26T11:46:09.837Z,40.66
2022-07-26T11:48:36.790Z,40.87
2022-07-26T11:51:10.420Z,41.19
2022-07-26T11:53:38.032Z,41.28
2022-07-26T11:56:22.490Z,41.93
2022-07-26T11:58:54.062Z,40.48
2022-07-26T12:01:22.695Z,40.66
2022-07-26T12:03:54.132Z,41.31
2022-07-26T12:06:23.181Z,41.03
2022-07-26T12:08:58.244Z,40.32
2022-07-26T12:11:36.565Z,39.99
2022-07-26T12:14:04.106Z,39.46
2022-07-26T12:16:34.710Z,39.64
2022-07-26T12:19:01.306Z,39.83
2022-07-26T12:21:47.519Z,39.52
2022-07-26T12:24:34.449Z,39.30
2022-07-26T12:27:21.493Z,39.24
2022-07-26T12:29:50.936Z,39.17
2022-07-26T12:32:20.767Z,40.13
2022-07-26T12:34:59.065Z,40.16
2022-07-26T12:37:37.703Z,39.80
2022-07-26T12:40:13.059Z,40.63
2022-07-26T12:42:42.166Z,40.08
2022-07-26T12:45:13.464Z,40.13
2022-07-26T12:47:42.824Z,40.06
2022-07-26T12:50:11.985Z,40.39
2022-07-26T12:52:39.697Z,40.55
2022-07-26T12:55:07.717Z,40.63
2022-07-26T12:57:35.253Z,41.03
2022-07-26T13:00:05.404Z,41.63
2022-07-26T13:02:32.150Z,41.76
2022-07-26T13:05:00.595Z,42.39
2022-07-26T13:07:27.554Z,42.82
2022-07-26T13:10:14.323Z,42.57
2022-07-26T13:12:41.233Z,42.95
2022-07-26T13:15:08.390Z,43.05
2022-07-26T13:17:35.054Z,42.99
2022-07-26T13:20:02.029Z,42.65
2022-07-26T13:22:28.688Z,42.34
2022-07-26T13:24:55.339Z,42.08
2022-07-26T13:27:22.053Z,42.18
2022-07-26T13:29:48.659Z,42.64
2022-07-26T13:32:17.080Z,42.58
2022-07-26T13:34:43.737Z,43.06
2022-07-26T13:37:10.392Z,42.48
2022-07-26T13:39:37.085Z,42.07
2022-07-26T13:42:04.060Z,42.65
2022-07-26T13:44:30.733Z,42.45
2022-07-26T13:46:57.401Z,41.92
2022-07-26T13:49:24.116Z,41.75
2022-07-26T13:52:00.045Z,41.41
2022-07-26T13:54:32.044Z,41.12
2022-07-26T13:57:00.129Z,41.60
2022-07-26T13:59:27.663Z,41.15
2022-07-26T14:01:55.428Z,41.76
2022-07-26T14:04:22.987Z,41.76
2022-07-26T14:06:50.553Z,42.10
2022-07-26T14:09:18.607Z,42.51
2022-07-26T14:11:45.992Z,42.42
2022-07-26T14:14:13.506Z,42.18
2022-07-26T14:16:40.715Z,42.37
2022-07-26T14:19:07.819Z,41.03
2022-07-26T14:21:38.770Z,41.21
2022-07-26T14:24:16.518Z,41.04
2022-07-26T14:26:45.580Z,39.80
2022-07-26T14:29:13.516Z,40.19
2022-07-26T14:31:40.203Z,40.87
2022-07-26T14:34:06.812Z,41.00
2022-07-26T14:36:33.692Z,41.02
2022-07-26T14:39:00.352Z,41.63
2022-07-26T14:41:27.187Z,41.87
2022-07-26T14:43:55.832Z,41.25
2022-07-26T14:46:22.668Z,40.92
2022-07-26T14:48:54.510Z,41.13
2022-07-26T14:51:21.799Z,41.86
2022-07-26T14:53:48.658Z,42.09
2022-07-26T14:56:15.961Z,42.20
2022-07-26T14:58:42.566Z,41.81
2022-07-26T15:01:09.398Z,41.63
2022-07-26T15:03:36.261Z,41.91
2022-07-26T15:06:03.024Z,42.28
2022-07-26T15:08:29.672Z,42.39
2022-07-26T15:10:56.369Z,42.38
2022-07-26T15:13:24.075Z,42.35
2022-07-26T15:15:50.775Z,42.29
2022-07-26T15:18:17.586Z,42.46
2022-07-26T15:20:44.230Z,41.32
2022-07-26T15:23:12.071Z,41.92
2022-07-26T15:25:38.744Z,41.96
2022-07-26T15:28:05.895Z,42.10
2022-07-26T15:30:33.941Z,42.21
2022-07-26T15:33:02.095Z,41.56
2022-07-26T15:35:30.198Z,41.48
2022-07-26T15:37:58.455Z,41.55
2022-07-26T15:40:25.411Z,41.76
2022-07-26T15:42:53.031Z,41.15
2022-07-26T15:45:21.905Z,41.13
2022-07-26T15:47:56.064Z,41.32
2022-07-26T15:50:26.400Z,41.43
2022-07-26T15:52:53.345Z,40.34
2022-07-26T15:55:20.536Z,40.67
2022-07-26T15:57:47.503Z,40.32
2022-07-26T16:00:16.375Z,39.83
2022-07-26T16:02:44.022Z,39.99
2022-07-26T16:05:11.940Z,40.29
2022-07-26T16:07:41.667Z,40.16
2022-07-26T16:10:11.111Z,40.18
2022-07-26T16:12:38.350Z,39.23
2022-07-26T16:15:07.090Z,38.34
2022-07-26T16:17:33.833Z,37.89
2022-07-26T16:20:01.362Z,37.81
2022-07-26T16:22:28.126Z,37.57
2022-07-26T16:24:54.787Z,37.21
2022-07-26T16:27:21.395Z,36.36
2022-07-26T16:29:52.163Z,35.98
2022-07-26T16:32:21.214Z,36.01
2022-07-26T16:34:48.260Z,35.69
2022-07-26T16:37:14.986Z,35.52
2022-07-26T16:39:41.607Z,35.40
2022-07-26T16:42:08.272Z,35.28
2022-07-26T16:44:36.318Z,35.26
2022-07-26T16:47:04.052Z,35.27
2022-07-26T16:49:30.897Z,35.08
2022-07-26T16:51:58.122Z,34.95
2022-07-26T16:54:25.762Z,34.95
2022-07-26T16:56:52.558Z,34.76
2022-07-26T16:59:19.240Z,34.58
2022-07-26T17:01:45.912Z,34.41
2022-07-26T17:04:12.651Z,34.03
2022-07-26T17:06:39.310Z,33.25
2022-07-26T17:09:05.972Z,32.77
2022-07-26T17:11:32.983Z,32.17
2022-07-26T17:13:59.875Z,31.81
2022-07-26T17:16:27.362Z,31.47
2022-07-26T17:18:54.973Z,31.29
2022-07-26T17:21:22.604Z,31.14
2022-07-26T17:23:50.155Z,30.96
2022-07-26T17:26:17.810Z,30.62
2022-07-26T17:28:44.529Z,30.44
2022-07-26T17:31:11.152Z,30.20
2022-07-26T17:33:39.162Z,30.06
2022-07-26T17:36:21.210Z,29.79
2022-07-26T17:38:48.084Z,29.56
2022-07-26T17:41:18.294Z,29.53
2022-07-26T17:43:46.422Z,29.46
2022-07-26T17:46:13.888Z,29.32
2022-07-26T17:48:41.789Z,29.29
2022-07-26T17:51:08.557Z,29.14
2022-07-26T17:53:35.270Z,29.06
2022-07-26T17:56:02.721Z,29.00
2022-07-26T17:58:29.380Z,28.92
2022-07-26T18:00:56.016Z,28.80
2022-07-26T18:03:23.294Z,28.76
2022-07-26T18:05:51.089Z,28.71
2022-07-26T18:08:17.861Z,28.69
2022-07-26T18:10:50.539Z,28.67
2022-07-26T18:13:17.890Z,28.64
2022-07-26T18:15:44.700Z,28.59
2022-07-26T18:18:11.645Z,28.62
2022-07-26T18:20:38.477Z,28.52
2022-07-26T18:23:05.081Z,28.48
2022-07-26T18:25:31.744Z,28.47
2022-07-26T18:28:00.945Z,28.45
2022-07-26T18:30:32.314Z,28.44
2022-07-26T18:32:59.820Z,28.42
2022-07-26T18:35:26.779Z,28.43
2022-07-26T18:37:53.629Z,28.42
2022-07-26T18:40:23.201Z,28.36
2022-07-26T18:42:49.870Z,28.33
2022-07-26T18:45:16.718Z,28.33
2022-07-26T18:47:43.477Z,28.25
2022-07-26T18:50:11.660Z,28.22
2022-07-26T18:52:38.881Z,28.18
2022-07-26T18:55:08.513Z,28.11
2022-07-26T18:57:36.854Z,28.10
2022-07-26T19:00:13.284Z,28.06
2022-07-26T19:02:41.119Z,28.02
2022-07-26T19:05:08.162Z,27.98
2022-07-26T19:07:37.586Z,28.00
2022-07-26T19:10:09.665Z,27.99
2022-07-26T19:12:36.327Z,27.91
2022-07-26T19:15:04.276Z,27.85
2022-07-26T19:17:32.988Z,27.79
2022-07-26T19:20:00.228Z,27.75
2022-07-26T19:22:29.140Z,27.76
2022-07-26T19:24:56.360Z,27.75
2022-07-26T19:27:23.385Z,27.70
2022-07-26T19:29:50.138Z,27.61
2022-07-26T19:32:16.881Z,27.54
2022-07-26T19:34:43.504Z,27.50
2022-07-26T19:37:10.167Z,27.49
2022-07-26T19:39:37.209Z,27.43
2022-07-26T19:42:04.010Z,27.34
2022-07-26T19:44:31.746Z,27.32
2022-07-26T19:46:58.344Z,27.26
2022-07-26T19:49:25.310Z,27.25
2022-07-26T19:51:52.036Z,27.18
2022-07-26T19:54:18.842Z,27.15
2022-07-26T19:56:45.435Z,27.11
2022-07-26T19:59:12.488Z,26.97
2022-07-26T20:01:39.329Z,26.88
2022-07-26T20:04:05.997Z,26.87
2022-07-26T20:06:32.638Z,26.83
2022-07-26T20:08:59.276Z,26.81
2022-07-26T20:11:27.940Z,26.73
2022-07-26T20:13:55.580Z,26.70
2022-07-26T20:16:22.529Z,26.68
2022-07-26T20:18:49.235Z,26.62
2022-07-26T20:21:15.950Z,26.57
2022-07-26T20:23:42.660Z,26.53
2022-07-26T20:26:09.398Z,26.56
2022-07-26T20:28:36.135Z,26.51
2022-07-26T20:31:02.955Z,26.44
2022-07-26T20:33:29.649Z,26.41
2022-07-26T20:35:56.303Z,26.40
2022-07-26T20:38:23.133Z,26.35
2022-07-26T20:40:50.085Z,26.29
2022-07-26T20:43:17.333Z,26.29
2022-07-26T20:45:44.501Z,26.29
2022-07-26T20:48:11.283Z,26.24
2022-07-26T20:50:38.367Z,26.17
2022-07-26T20:53:05.211Z,26.14
2022-07-26T20:55:31.894Z,26.12
2022-07-26T20:57:58.568Z,26.04
2022-07-26T21:00:26.515Z,25.97
2022-07-26T21:02:53.864Z,25.90
2022-07-26T21:05:20.727Z,25.86
2022-07-26T21:07:58.414Z,25.87
2022-07-26T21:10:27.876Z,25.80
2022-07-26T21:12:57.360Z,25.79
2022-07-26T21:15:24.183Z,25.73
2022-07-26T21:17:52.448Z,25.71
2022-07-26T21:20:19.443Z,25.67
2022-07-26T21:22:46.204Z,25.64
2022-07-26T21:25:13.446Z,25.62
2022-07-26T21:27:40.176Z,25.57
2022-07-26T21:30:07.931Z,25.55
2022-07-26T21:32:34.858Z,25.51
2022-07-26T21:35:01.664Z,25.44
2022-07-26T21:37:28.513Z,25.36
2022-07-26T21:39:55.170Z,25.28
2022-07-26T21:42:21.742Z,25.24
2022-07-26T21:44:53.493Z,25.20
2022-07-26T21:47:20.100Z,25.15
2022-07-26T21:49:46.680Z,25.15
2022-07-26T21:52:13.305Z,25.12
2022-07-26T21:54:39.941Z,25.09
2022-07-26T21:57:07.444Z,25.05
2022-07-26T21:59:34.166Z,24.97
2022-07-26T22:02:00.968Z,24.99
2022-07-26T22:04:27.813Z,24.92
2022-07-26T22:06:54.570Z,24.91
2022-07-26T22:09:21.243Z,24.87
2022-07-26T22:11:47.875Z,24.92
2022-07-26T22:14:14.571Z,24.88
2022-07-26T22:16:44.285Z,24.78
2022-07-26T22:19:11.281Z,24.77
2022-07-26T22:21:38.120Z,24.77
2022-07-26T22:24:05.226Z,24.73
2022-07-26T22:26:31.984Z,24.64
2022-07-26T22:28:59.465Z,24.53
2022-07-26T22:31:26.258Z,24.44
2022-07-26T22:33:53.157Z,24.42
2022-07-26T22:36:19.970Z,24.40
2022-07-26T22:38:47.134Z,24.38
2022-07-26T22:41:13.753Z,24.31
2022-07-26T22:43:40.428Z,24.26
2022-07-26T22:46:07.147Z,24.07
2022-07-26T22:48:37.913Z,24.04
2022-07-26T22:51:04.890Z,23.94
2022-07-26T22:53:31.520Z,23.92
2022-07-26T22:55:58.532Z,23.86
2022-07-26T22:58:25.128Z,23.84
2022-07-26T23:00:51.973Z,23.78
2022-07-26T23:03:21.549Z,23.67
2022-07-26T23:05:50.101Z,23.61
2022-07-26T23:08:45.804Z,23.49
2022-07-26T23:11:05.072Z,23.33
2022-07-26T23:13:32.226Z,23.34
2022-07-26T23:16:01.214Z,23.36
2022-07-26T23:18:28.774Z,23.34
2022-07-26T23:20:55.372Z,23.25
2022-07-26T23:23:22.061Z,23.23
2022-07-26T23:25:51.214Z,23.17
2022-07-26T23:28:35.141Z,23.07
2022-07-26T23:31:07.673Z,23.04
2022-07-26T23:33:52.894Z,22.95
2022-07-26T23:36:26.947Z,22.86
2022-07-26T23:38:55.075Z,22.84
2022-07-26T23:41:22.844Z,22.76
2022-07-26T23:43:49.829Z,22.65
2022-07-26T23:46:16.835Z,22.68
2022-07-26T23:48:43.640Z,22.67
2022-07-26T23:51:10.292Z,22.59
2022-07-26T23:53:37.084Z,22.56
2022-07-26T23:56:04.000Z,22.51
2022-07-26T23:58:30.664Z,22.49
